Airfield :
LOGIN :

Register | Disclaimer

   EN    FR    IT 

 










Legend :    VFR   Marginal VFR   IFR   Intensive IFR   Very Intensive IFR
Visi :
Ceiling :
>= 8 km
>= 3000ft
5 to 8 km
1000 to 3000 ft
1500m to 5 km
500 to 1000 ft
800 to 1500m
200 to 500 ft
< 800m
< 200 ft
Symbols :   Thunderstorms  Fog  Heavy snow  Heavy precipitations  Wind > 20 kt
SIGMETs :     Misc.  Thunderstorms  Icing  Turbulence  Mountain Waves  Volcanic Ashes







- Airport Elevation : 1273 ft
- IATA code : LJU


LJLJ - Ljubljana

CURRENT METAR :
  • 201230Z 35003KT 9999 FEW035 BKN065 01/M03 Q1010 NOSIG

EXPIRED METARs :
  • 201200Z VRB02KT 9999 FEW035 BKN065 01/M03 Q1010 NOSIG
  • 201130Z 06004KT 9999 FEW035 BKN065 01/M03 Q1010 NOSIG
  • 201100Z 07004KT 040V100 9999 FEW035 BKN065 01/M02 Q1010 NOSIG
  • 201030Z VRB02KT 9999 FEW035 BKN080 01/M03 Q1010 NOSIG
  • 201000Z 32003KT 9999 FEW045 BKN065 00/M03 Q1011 NOSIG

TAF TAF LJLJ
Valid from the 20 at 12:00 until the 21 at 12:00 UTC


201100Z 2012/2112 12005KT 9999 FEW015 BKN060
TEMPO 2012/2112 5000 -SN BR OVC035
BECMG 2018/2020 VRB02KT
BECMG 2110/2112 11005KT
No reported NOTAMs for that airfield.



MET'MAP, your aeronautical weather chart ! - Copyright ORBIFLY December 2007 - Disclaimer

ORBIFLY MET'MAP TEAM :

Programming & Development : Alexandra Zaïnal
Concept & Development : Baudouin d'Aumeries
Co-Development & Prog : Marc-Olivier Méhu
Technical & hardware support : Manuel Goepfert

Contact : metmap@orbifly.com




SOURCES & CREDITS :

   NOAA